SAS7001 ESSA-ESSV
Flight info
| Callsign | SAS7001 |
|---|---|
| Flight time | 0h 33m |
| Altitude | 19000 |
| Route | BABAP T316 GOTAL |
| Aircraft | A20N/M-SDE2E3FGHIRWXY/LB1 |
Departure
| Time | 2026-05-07 13:06 |
|---|---|
| Airport | Stockholm-Arlanda Airport (ESSA) |
Arrival
| Time | 2026-05-07 13:39 |
|---|---|
| Airport | Visby Airport (ESSV) |
| Time | Latitude | Longitude | Altitude | Speed | Heading |
|---|---|---|---|---|---|
| 2026-05-07 12:53 | 59.65369 | 17.92963 | 109 ft | 0 kts | 137° |
| 2026-05-07 12:57 | 59.65374 | 17.92956 | 109 ft | 2 kts | 137° |
| 2026-05-07 12:57 | 59.65385 | 17.92935 | 109 ft | 2 kts | 137° |
| 2026-05-07 12:57 | 59.65392 | 17.92923 | 109 ft | 2 kts | 133° |
| 2026-05-07 12:57 | 59.65398 | 17.92896 | 109 ft | 2 kts | 97° |
| 2026-05-07 12:58 | 59.65398 | 17.92872 | 109 ft | 0 kts | 73° |
| 2026-05-07 12:58 | 59.65398 | 17.92874 | 109 ft | 0 kts | 71° |
| 2026-05-07 12:59 | 59.65398 | 17.92875 | 109 ft | 0 kts | 71° |
| 2026-05-07 13:01 | 59.65399 | 17.92877 | 109 ft | 0 kts | 68° |
| 2026-05-07 13:01 | 59.65403 | 17.92897 | 109 ft | 3 kts | 69° |
| 2026-05-07 13:01 | 59.65422 | 17.92950 | 109 ft | 6 kts | 16° |
| 2026-05-07 13:01 | 59.65464 | 17.92888 | 109 ft | 9 kts | 277° |
| 2026-05-07 13:02 | 59.65442 | 17.92742 | 108 ft | 12 kts | 245° |
| 2026-05-07 13:02 | 59.65456 | 17.92592 | 108 ft | 13 kts | 330° |
| 2026-05-07 13:02 | 59.65544 | 17.92519 | 107 ft | 14 kts | 346° |
| 2026-05-07 13:02 | 59.65641 | 17.92471 | 107 ft | 14 kts | 346° |
| 2026-05-07 13:03 | 59.65740 | 17.92424 | 108 ft | 14 kts | 348° |
| 2026-05-07 13:03 | 59.65837 | 17.92445 | 109 ft | 13 kts | 13° |
| 2026-05-07 13:03 | 59.65909 | 17.92376 | 109 ft | 13 kts | 288° |
| 2026-05-07 13:03 | 59.65927 | 17.92198 | 109 ft | 12 kts | 281° |
| 2026-05-07 13:04 | 59.65891 | 17.92106 | 109 ft | 7 kts | 190° |
| 2026-05-07 13:04 | 59.65884 | 17.92103 | 109 ft | 0 kts | 190° |
| 2026-05-07 13:05 | 59.65879 | 17.92102 | 108 ft | 3 kts | 190° |
| 2026-05-07 13:05 | 59.65674 | 17.92027 | 106 ft | 67 kts | 190° |
| 2026-05-07 13:05 | 59.64987 | 17.91779 | 104 ft | 132 kts | 190° |
| 2026-05-07 13:05 | 59.63927 | 17.91391 | 296 ft | 166 kts | 190° |
| 2026-05-07 13:06 | 59.62794 | 17.91001 | 911 ft | 169 kts | 189° |
| 2026-05-07 13:06 | 59.61637 | 17.90655 | 1565 ft | 172 kts | 185° |
| 2026-05-07 13:06 | 59.60433 | 17.90550 | 2149 ft | 179 kts | 182° |
| 2026-05-07 13:06 | 59.59140 | 17.90422 | 2551 ft | 195 kts | 184° |
| 2026-05-07 13:07 | 59.57739 | 17.90275 | 2954 ft | 212 kts | 181° |
| 2026-05-07 13:07 | 59.56296 | 17.91017 | 3427 ft | 225 kts | 145° |
| 2026-05-07 13:07 | 59.55174 | 17.93179 | 4091 ft | 231 kts | 131° |
| 2026-05-07 13:07 | 59.54215 | 17.95639 | 4949 ft | 229 kts | 115° |
| 2026-05-07 13:08 | 59.53914 | 17.98688 | 5695 ft | 230 kts | 82° |
| 2026-05-07 13:08 | 59.54451 | 18.01637 | 6248 ft | 240 kts | 52° |
| 2026-05-07 13:08 | 59.55670 | 18.03968 | 6713 ft | 255 kts | 38° |
| 2026-05-07 13:08 | 59.57076 | 18.06309 | 7205 ft | 273 kts | 39° |
| 2026-05-07 13:09 | 59.58526 | 18.08787 | 7910 ft | 282 kts | 39° |
| 2026-05-07 13:09 | 59.59982 | 18.11330 | 8756 ft | 286 kts | 40° |
| 2026-05-07 13:09 | 59.61306 | 18.14241 | 9593 ft | 292 kts | 54° |
| 2026-05-07 13:09 | 59.62231 | 18.17852 | 10416 ft | 297 kts | 67° |
| 2026-05-07 13:10 | 59.62927 | 18.21722 | 10931 ft | 312 kts | 70° |
| 2026-05-07 13:10 | 59.63628 | 18.25890 | 11329 ft | 330 kts | 70° |
| 2026-05-07 13:10 | 59.64374 | 18.30292 | 11688 ft | 349 kts | 69° |
| 2026-05-07 13:10 | 59.65177 | 18.34951 | 12024 ft | 367 kts | 69° |
| 2026-05-07 13:11 | 59.66015 | 18.39836 | 12411 ft | 384 kts | 71° |
| 2026-05-07 13:11 | 59.66363 | 18.45163 | 12811 ft | 400 kts | 94° |
| 2026-05-07 13:11 | 59.65670 | 18.50442 | 13456 ft | 404 kts | 116° |
| 2026-05-07 13:11 | 59.64055 | 18.54917 | 14084 ft | 404 kts | 139° |
| 2026-05-07 13:12 | 59.61764 | 18.57931 | 14685 ft | 400 kts | 160° |
| 2026-05-07 13:12 | 59.59145 | 18.59692 | 15400 ft | 400 kts | 166° |
| 2026-05-07 13:12 | 59.56497 | 18.61347 | 16036 ft | 404 kts | 166° |
| 2026-05-07 13:12 | 59.53809 | 18.63067 | 16663 ft | 408 kts | 165° |
| 2026-05-07 13:13 | 59.51127 | 18.64835 | 17305 ft | 411 kts | 165° |
| 2026-05-07 13:13 | 59.48394 | 18.66662 | 17905 ft | 414 kts | 166° |
| 2026-05-07 13:13 | 59.45699 | 18.68460 | 18466 ft | 417 kts | 168° |
| 2026-05-07 13:13 | 59.42896 | 18.69584 | 18923 ft | 412 kts | 180° |
| 2026-05-07 13:14 | 59.40054 | 18.69474 | 19073 ft | 404 kts | 193° |
| 2026-05-07 13:14 | 59.37342 | 18.68272 | 19076 ft | 398 kts | 201° |
| 2026-05-07 13:14 | 59.34705 | 18.66770 | 19078 ft | 397 kts | 201° |
| 2026-05-07 13:14 | 59.32080 | 18.65259 | 19084 ft | 397 kts | 201° |
| 2026-05-07 13:15 | 59.29425 | 18.63790 | 19073 ft | 398 kts | 200° |
| 2026-05-07 13:15 | 59.26696 | 18.62569 | 19076 ft | 400 kts | 196° |
| 2026-05-07 13:15 | 59.23967 | 18.61684 | 19065 ft | 403 kts | 193° |
| 2026-05-07 13:15 | 59.21161 | 18.61109 | 19080 ft | 405 kts | 189° |
| 2026-05-07 13:16 | 59.18369 | 18.60682 | 19076 ft | 404 kts | 189° |
| 2026-05-07 13:16 | 59.15583 | 18.60239 | 19084 ft | 405 kts | 189° |
| 2026-05-07 13:16 | 59.12794 | 18.59796 | 19082 ft | 405 kts | 189° |
| 2026-05-07 13:16 | 59.09979 | 18.59349 | 19083 ft | 404 kts | 189° |
| 2026-05-07 13:17 | 59.07182 | 18.58908 | 19077 ft | 404 kts | 189° |
| 2026-05-07 13:17 | 59.04419 | 18.58471 | 19085 ft | 404 kts | 189° |
| 2026-05-07 13:17 | 59.01615 | 18.58030 | 19084 ft | 405 kts | 189° |
| 2026-05-07 13:17 | 58.98811 | 18.57592 | 19081 ft | 405 kts | 189° |
| 2026-05-07 13:18 | 58.96034 | 18.57159 | 19088 ft | 405 kts | 189° |
| 2026-05-07 13:18 | 58.93207 | 18.56718 | 19081 ft | 405 kts | 189° |
| 2026-05-07 13:18 | 58.90408 | 18.56285 | 19079 ft | 405 kts | 189° |
| 2026-05-07 13:18 | 58.87638 | 18.55858 | 19087 ft | 405 kts | 189° |
| 2026-05-07 13:19 | 58.84812 | 18.55420 | 19092 ft | 405 kts | 189° |
| 2026-05-07 13:19 | 58.82019 | 18.54989 | 19085 ft | 405 kts | 189° |
| 2026-05-07 13:19 | 58.79233 | 18.54561 | 19080 ft | 405 kts | 189° |
| 2026-05-07 13:19 | 58.76446 | 18.54131 | 19080 ft | 405 kts | 189° |
| 2026-05-07 13:20 | 58.73617 | 18.53696 | 19088 ft | 405 kts | 189° |
| 2026-05-07 13:20 | 58.70835 | 18.53268 | 19080 ft | 406 kts | 189° |
| 2026-05-07 13:20 | 58.68043 | 18.52839 | 19086 ft | 406 kts | 189° |
| 2026-05-07 13:20 | 58.65219 | 18.52407 | 19080 ft | 406 kts | 189° |
| 2026-05-07 13:21 | 58.62411 | 18.51977 | 19077 ft | 406 kts | 189° |
| 2026-05-07 13:21 | 58.59615 | 18.51548 | 19081 ft | 406 kts | 189° |
| 2026-05-07 13:21 | 58.56818 | 18.51123 | 19084 ft | 406 kts | 189° |
| 2026-05-07 13:21 | 58.53985 | 18.50693 | 19084 ft | 406 kts | 189° |
| 2026-05-07 13:22 | 58.51176 | 18.50266 | 19081 ft | 406 kts | 189° |
| 2026-05-07 13:22 | 58.48396 | 18.49844 | 19084 ft | 406 kts | 189° |
| 2026-05-07 13:22 | 58.45596 | 18.49418 | 19082 ft | 406 kts | 189° |
| 2026-05-07 13:22 | 58.42786 | 18.48991 | 19081 ft | 406 kts | 189° |
| 2026-05-07 13:23 | 58.39974 | 18.48565 | 19080 ft | 406 kts | 188° |
| 2026-05-07 13:23 | 58.37167 | 18.48141 | 18766 ft | 408 kts | 188° |
| 2026-05-07 13:23 | 58.34344 | 18.47715 | 18033 ft | 409 kts | 188° |
| 2026-05-07 13:23 | 58.31535 | 18.47293 | 17391 ft | 406 kts | 188° |
| 2026-05-07 13:24 | 58.28726 | 18.46871 | 16787 ft | 403 kts | 188° |
| 2026-05-07 13:24 | 58.25954 | 18.46345 | 16196 ft | 398 kts | 191° |
| 2026-05-07 13:24 | 58.23267 | 18.45470 | 15618 ft | 393 kts | 195° |
| 2026-05-07 13:24 | 58.20660 | 18.44244 | 15059 ft | 388 kts | 199° |
| 2026-05-07 13:25 | 58.18055 | 18.42846 | 14474 ft | 385 kts | 199° |
| 2026-05-07 13:25 | 58.15528 | 18.41490 | 13915 ft | 382 kts | 199° |
| 2026-05-07 13:25 | 58.12974 | 18.40121 | 13356 ft | 379 kts | 199° |
| 2026-05-07 13:25 | 58.10468 | 18.38779 | 12803 ft | 377 kts | 199° |
| 2026-05-07 13:26 | 58.07942 | 18.37430 | 12244 ft | 374 kts | 198° |
| 2026-05-07 13:26 | 58.05474 | 18.36115 | 11701 ft | 372 kts | 198° |
| 2026-05-07 13:26 | 58.02996 | 18.34796 | 11267 ft | 366 kts | 197° |
| 2026-05-07 13:26 | 58.00582 | 18.33516 | 11041 ft | 353 kts | 197° |
| 2026-05-07 13:27 | 57.98284 | 18.32300 | 10840 ft | 341 kts | 197° |
| 2026-05-07 13:27 | 57.96047 | 18.31115 | 10652 ft | 329 kts | 197° |
| 2026-05-07 13:27 | 57.93875 | 18.29965 | 10480 ft | 317 kts | 197° |
| 2026-05-07 13:27 | 57.91784 | 18.28859 | 10319 ft | 306 kts | 197° |
| 2026-05-07 13:28 | 57.89786 | 18.27803 | 10189 ft | 295 kts | 197° |
| 2026-05-07 13:28 | 57.87851 | 18.26781 | 10024 ft | 286 kts | 197° |
| 2026-05-07 13:28 | 57.85947 | 18.25776 | 9657 ft | 286 kts | 197° |
| 2026-05-07 13:28 | 57.84026 | 18.24762 | 9303 ft | 285 kts | 197° |
| 2026-05-07 13:29 | 57.82129 | 18.23764 | 8969 ft | 283 kts | 197° |
| 2026-05-07 13:29 | 57.80242 | 18.22772 | 8616 ft | 282 kts | 197° |
| 2026-05-07 13:29 | 57.78390 | 18.21799 | 8279 ft | 280 kts | 197° |
| 2026-05-07 13:29 | 57.76529 | 18.20812 | 7971 ft | 278 kts | 197° |
| 2026-05-07 13:30 | 57.74679 | 18.19826 | 7658 ft | 276 kts | 197° |
| 2026-05-07 13:30 | 57.72839 | 18.18843 | 7331 ft | 274 kts | 197° |
| 2026-05-07 13:30 | 57.71008 | 18.17866 | 7016 ft | 273 kts | 197° |
| 2026-05-07 13:30 | 57.69207 | 18.16907 | 6697 ft | 271 kts | 196° |
| 2026-05-07 13:31 | 57.67394 | 18.15943 | 6385 ft | 270 kts | 196° |
| 2026-05-07 13:31 | 57.65601 | 18.14991 | 6079 ft | 269 kts | 196° |
| 2026-05-07 13:31 | 57.63807 | 18.14039 | 5765 ft | 268 kts | 196° |
| 2026-05-07 13:31 | 57.62029 | 18.13096 | 5462 ft | 266 kts | 195° |
| 2026-05-07 13:32 | 57.60255 | 18.12158 | 5157 ft | 265 kts | 195° |
| 2026-05-07 13:32 | 57.58498 | 18.11232 | 4861 ft | 264 kts | 195° |
| 2026-05-07 13:32 | 57.56736 | 18.10303 | 4556 ft | 263 kts | 195° |
| 2026-05-07 13:32 | 57.54985 | 18.09381 | 4256 ft | 262 kts | 195° |
| 2026-05-07 13:33 | 57.53222 | 18.08615 | 3921 ft | 262 kts | 182° |
| 2026-05-07 13:33 | 57.51482 | 18.09394 | 3577 ft | 256 kts | 144° |
| 2026-05-07 13:33 | 57.50320 | 18.11746 | 3155 ft | 252 kts | 112° |
| 2026-05-07 13:33 | 57.49735 | 18.14726 | 3000 ft | 241 kts | 106° |
| 2026-05-07 13:34 | 57.49183 | 18.17660 | 2834 ft | 234 kts | 107° |
| 2026-05-07 13:34 | 57.49304 | 18.23042 | 2454 ft | 210 kts | 43° |
| 2026-05-07 13:34 | 57.50538 | 18.24234 | 2288 ft | 200 kts | 13° |
| 2026-05-07 13:35 | 57.51871 | 18.24775 | 2186 ft | 190 kts | 13° |
| 2026-05-07 13:35 | 57.53079 | 18.25370 | 2243 ft | 172 kts | 16° |
| 2026-05-07 13:35 | 57.54168 | 18.26000 | 2175 ft | 156 kts | 18° |
| 2026-05-07 13:35 | 57.55151 | 18.26651 | 2159 ft | 150 kts | 20° |
| 2026-05-07 13:36 | 57.56135 | 18.27345 | 2126 ft | 153 kts | 21° |
| 2026-05-07 13:36 | 57.57123 | 18.28057 | 1918 ft | 148 kts | 21° |
| 2026-05-07 13:36 | 57.58053 | 18.28728 | 1707 ft | 141 kts | 21° |
| 2026-05-07 13:36 | 57.58953 | 18.29376 | 1538 ft | 135 kts | 20° |
| 2026-05-07 13:37 | 57.59796 | 18.29981 | 1341 ft | 126 kts | 20° |
| 2026-05-07 13:37 | 57.60615 | 18.30569 | 1182 ft | 125 kts | 20° |
| 2026-05-07 13:37 | 57.61424 | 18.31150 | 1019 ft | 124 kts | 20° |
| 2026-05-07 13:37 | 57.62226 | 18.31726 | 855 ft | 125 kts | 20° |
| 2026-05-07 13:38 | 57.63042 | 18.32300 | 687 ft | 125 kts | 19° |
| 2026-05-07 13:38 | 57.63846 | 18.32878 | 519 ft | 124 kts | 19° |
| 2026-05-07 13:38 | 57.64651 | 18.33462 | 340 ft | 123 kts | 19° |
| 2026-05-07 13:38 | 57.65447 | 18.34031 | 183 ft | 122 kts | 19° |
| 2026-05-07 13:39 | 57.66165 | 18.34542 | 145 ft | 91 kts | 21° |
| 2026-05-07 13:39 | 57.66607 | 18.34857 | 143 ft | 50 kts | 20° |
| 2026-05-07 13:39 | 57.66850 | 18.35034 | 144 ft | 32 kts | 20° |
| 2026-05-07 13:39 | 57.67012 | 18.35147 | 144 ft | 13 kts | 21° |
| 2026-05-07 13:40 | 57.67097 | 18.35190 | 144 ft | 12 kts | 345° |
| 2026-05-07 13:40 | 57.67142 | 18.35062 | 144 ft | 12 kts | 290° |
| 2026-05-07 13:40 | 57.67152 | 18.34943 | 144 ft | 9 kts | 239° |
| 2026-05-07 13:40 | 57.67093 | 18.34883 | 144 ft | 10 kts | 201° |
| 2026-05-07 13:41 | 57.67017 | 18.34828 | 143 ft | 12 kts | 200° |
| 2026-05-07 13:41 | 57.66931 | 18.34767 | 143 ft | 13 kts | 200° |
| 2026-05-07 13:41 | 57.66838 | 18.34700 | 143 ft | 14 kts | 201° |
| 2026-05-07 13:41 | 57.66740 | 18.34630 | 143 ft | 15 kts | 201° |
| 2026-05-07 13:42 | 57.66636 | 18.34554 | 143 ft | 16 kts | 200° |
| 2026-05-07 13:42 | 57.66533 | 18.34481 | 143 ft | 15 kts | 201° |
| 2026-05-07 13:42 | 57.66436 | 18.34411 | 144 ft | 14 kts | 199° |
| 2026-05-07 13:42 | 57.66346 | 18.34347 | 144 ft | 13 kts | 201° |
| 2026-05-07 13:43 | 57.66259 | 18.34284 | 145 ft | 13 kts | 200° |
| 2026-05-07 13:43 | 57.66177 | 18.34226 | 146 ft | 12 kts | 200° |
| 2026-05-07 13:43 | 57.66098 | 18.34171 | 146 ft | 11 kts | 199° |
| 2026-05-07 13:43 | 57.66025 | 18.34110 | 147 ft | 10 kts | 223° |
| 2026-05-07 13:44 | 57.66028 | 18.34000 | 147 ft | 8 kts | 294° |
| 2026-05-07 13:44 | 57.66051 | 18.33962 | 147 ft | 2 kts | 329° |
| 2026-05-07 13:44 | 57.66058 | 18.33955 | 146 ft | 0 kts | 330° |
| 2026-05-07 13:44 | 57.66061 | 18.33952 | 146 ft | 0 kts | 331° |